createdAt,value
2022-08-07T00:00:26.094Z,23.99
2022-08-07T00:02:55.983Z,24.05
2022-08-07T00:05:25.642Z,24.16
2022-08-07T00:08:00.318Z,23.52
2022-08-07T00:10:30.624Z,23.17
2022-08-07T00:13:03.230Z,22.77
2022-08-07T00:15:46.727Z,22.91
2022-08-07T00:18:24.855Z,22.89
2022-08-07T00:20:56.744Z,22.24
2022-08-07T00:23:28.430Z,21.95
2022-08-07T00:26:00.245Z,22.39
2022-08-07T00:28:33.733Z,22.78
2022-08-07T00:31:12.435Z,23.01
2022-08-07T00:33:41.822Z,23.00
2022-08-07T00:36:11.253Z,22.57
2022-08-07T00:38:40.253Z,22.09
2022-08-07T00:41:09.935Z,22.54
2022-08-07T00:44:01.309Z,22.28
2022-08-07T00:46:33.172Z,22.39
2022-08-07T00:49:03.151Z,22.15
2022-08-07T00:51:57.561Z,22.16
2022-08-07T00:54:20.558Z,22.78
2022-08-07T00:56:51.290Z,22.96
2022-08-07T00:59:32.667Z,23.21
2022-08-07T01:02:06.375Z,22.54
2022-08-07T01:04:43.255Z,22.15
2022-08-07T01:07:12.935Z,21.88
2022-08-07T01:10:04.730Z,21.80
2022-08-07T01:12:31.063Z,22.45
2022-08-07T01:15:03.862Z,22.25
2022-08-07T01:17:33.068Z,22.68
2022-08-07T01:20:06.522Z,22.86
2022-08-07T01:22:37.813Z,23.10
2022-08-07T01:25:53.945Z,22.43
2022-08-07T01:28:03.888Z,21.63
2022-08-07T01:30:32.407Z,22.54
2022-08-07T01:33:00.576Z,22.85
2022-08-07T01:35:37.001Z,22.33
2022-08-07T01:38:24.863Z,22.85
2022-08-07T01:40:59.339Z,22.74
2022-08-07T01:43:37.988Z,22.83
2022-08-07T01:46:08.187Z,22.17
2022-08-07T01:48:46.580Z,21.95
2022-08-07T01:52:01.986Z,22.61
2022-08-07T01:54:21.994Z,22.10
2022-08-07T01:57:04.420Z,21.80
2022-08-07T01:59:37.893Z,22.37
2022-08-07T02:02:32.752Z,21.99
2022-08-07T02:05:07.863Z,22.36
2022-08-07T02:07:51.616Z,22.45
2022-08-07T02:10:35.072Z,22.86
2022-08-07T02:13:07.773Z,22.90
2022-08-07T02:15:48.336Z,22.39
2022-08-07T02:18:22.596Z,21.51
2022-08-07T02:20:57.479Z,21.47
2022-08-07T02:23:26.840Z,21.79
2022-08-07T02:26:26.624Z,22.46
2022-08-07T02:28:45.075Z,22.93
2022-08-07T02:31:28.171Z,22.62
2022-08-07T02:34:03.038Z,22.11
2022-08-07T02:36:35.225Z,21.27
2022-08-07T02:39:17.046Z,21.70
2022-08-07T02:42:00.677Z,21.86
2022-08-07T02:44:34.774Z,22.11
2022-08-07T02:47:06.911Z,22.25
2022-08-07T02:49:56.356Z,21.77
2022-08-07T02:52:32.252Z,21.13
2022-08-07T02:55:04.489Z,21.07
2022-08-07T02:57:46.734Z,20.88
2022-08-07T03:00:18.334Z,20.78
2022-08-07T03:02:54.651Z,20.90
2022-08-07T03:05:24.964Z,20.86
2022-08-07T03:08:07.971Z,21.27
2022-08-07T03:10:46.192Z,22.00
2022-08-07T03:13:19.272Z,21.69
2022-08-07T03:15:56.290Z,21.14
2022-08-07T03:18:34.834Z,21.30
2022-08-07T03:21:08.524Z,20.80
2022-08-07T03:24:21.039Z,20.84
2022-08-07T03:26:32.032Z,21.59
2022-08-07T03:29:05.159Z,20.81
2022-08-07T03:31:42.430Z,20.77
2022-08-07T03:34:18.893Z,20.93
2022-08-07T03:36:53.685Z,21.20
2022-08-07T03:39:59.463Z,20.98
2022-08-07T03:42:12.730Z,21.57
2022-08-07T03:44:43.279Z,22.16
2022-08-07T03:47:25.565Z,22.04
2022-08-07T03:49:57.008Z,21.14
2022-08-07T03:52:29.244Z,20.50
2022-08-07T03:55:06.712Z,20.52
2022-08-07T03:58:32.442Z,20.41
2022-08-07T04:00:33.802Z,19.89
2022-08-07T04:03:04.774Z,20.25
2022-08-07T04:05:40.925Z,19.93
2022-08-07T04:08:16.039Z,20.90
2022-08-07T04:10:54.090Z,21.51
2022-08-07T04:14:33.269Z,21.70
2022-08-07T04:16:31.149Z,21.32
2022-08-07T04:19:15.191Z,21.49
2022-08-07T04:22:04.909Z,21.70
2022-08-07T04:24:41.183Z,21.75
2022-08-07T04:27:15.130Z,22.12
2022-08-07T04:30:01.588Z,22.37
2022-08-07T04:32:44.844Z,22.64
2022-08-07T04:35:16.905Z,22.85
2022-08-07T04:38:03.092Z,22.06
2022-08-07T04:40:34.768Z,22.33
2022-08-07T04:43:03.593Z,22.36
2022-08-07T04:45:54.946Z,22.74
2022-08-07T04:49:02.707Z,23.30
2022-08-07T04:51:50.027Z,22.96
2022-08-07T04:54:30.181Z,23.06
2022-08-07T04:58:16.822Z,23.24
2022-08-07T05:00:11.889Z,23.49
2022-08-07T05:02:50.087Z,24.42
2022-08-07T05:05:53.447Z,23.80
2022-08-07T05:08:17.929Z,24.10
2022-08-07T05:11:11.904Z,23.77
2022-08-07T05:14:52.900Z,24.48
2022-08-07T05:16:44.159Z,24.51
2022-08-07T05:19:16.249Z,25.10
2022-08-07T05:22:00.270Z,24.49
2022-08-07T05:24:39.516Z,24.53
2022-08-07T05:28:02.995Z,24.67
2022-08-07T05:30:04.517Z,25.15
2022-08-07T05:32:33.741Z,24.60
2022-08-07T05:35:03.703Z,24.86
2022-08-07T05:37:40.754Z,25.01
2022-08-07T05:40:17.670Z,25.45
2022-08-07T05:42:56.053Z,25.58
2022-08-07T05:45:47.027Z,25.27
2022-08-07T05:48:15.258Z,25.00
2022-08-07T05:50:46.305Z,25.83
2022-08-07T05:54:09.608Z,25.94
2022-08-07T05:56:07.443Z,26.15
2022-08-07T05:58:41.941Z,26.42
2022-08-07T06:01:23.180Z,26.42
2022-08-07T06:03:58.662Z,26.72
2022-08-07T06:06:36.714Z,26.81
2022-08-07T06:09:10.282Z,26.77
2022-08-07T06:11:43.107Z,26.97
2022-08-07T06:14:21.412Z,27.09
2022-08-07T06:16:59.282Z,27.21
2022-08-07T06:19:52.107Z,27.42
2022-08-07T06:22:24.141Z,27.73
2022-08-07T06:25:06.087Z,27.43
2022-08-07T06:28:00.137Z,26.76
2022-08-07T06:30:35.640Z,27.61
2022-08-07T06:33:16.597Z,27.65
2022-08-07T06:35:49.240Z,28.19
2022-08-07T06:38:38.164Z,27.94
2022-08-07T06:41:12.950Z,27.60
2022-08-07T06:43:46.123Z,26.90
2022-08-07T06:46:20.396Z,27.46
2022-08-07T06:49:00.105Z,27.64
2022-08-07T06:51:35.179Z,28.36
2022-08-07T06:55:32.413Z,29.08
2022-08-07T06:57:09.726Z,28.94
2022-08-07T07:00:13.791Z,27.59
2022-08-07T07:02:53.431Z,28.97
2022-08-07T07:06:02.681Z,28.15
2022-08-07T07:08:18.482Z,28.61
2022-08-07T07:10:56.757Z,28.75
2022-08-07T07:13:55.789Z,29.03
2022-08-07T07:16:21.914Z,27.50
2022-08-07T07:18:51.622Z,27.52
2022-08-07T07:21:22.013Z,29.13
2022-08-07T07:24:09.034Z,28.00
2022-08-07T07:26:41.756Z,26.26
2022-08-07T07:29:55.949Z,27.59
2022-08-07T07:32:14.322Z,28.95
2022-08-07T07:34:45.570Z,29.61
2022-08-07T07:37:45.397Z,28.97
2022-08-07T07:40:10.438Z,29.40
2022-08-07T07:42:47.137Z,29.93
2022-08-07T07:45:24.531Z,30.53
2022-08-07T07:48:11.973Z,29.53
2022-08-07T07:51:00.455Z,30.07
2022-08-07T07:53:34.848Z,30.68
2022-08-07T07:56:08.310Z,26.97
2022-08-07T07:58:40.948Z,29.13
2022-08-07T08:02:03.251Z,30.03
2022-08-07T08:04:09.456Z,29.40
2022-08-07T08:06:40.724Z,30.39
2022-08-07T08:09:23.068Z,29.38
2022-08-07T08:12:02.138Z,30.26
2022-08-07T08:14:31.711Z,29.70
2022-08-07T08:17:56.563Z,29.00
2022-08-07T08:20:19.385Z,30.21
2022-08-07T08:22:58.711Z,28.90
2022-08-07T08:25:49.384Z,29.61
2022-08-07T08:28:24.025Z,28.51
2022-08-07T08:31:14.854Z,28.90
2022-08-07T08:33:50.096Z,29.76
2022-08-07T08:36:30.061Z,30.72
2022-08-07T08:39:02.173Z,29.05
2022-08-07T08:41:56.959Z,28.24
2022-08-07T08:44:31.485Z,27.00
2022-08-07T08:47:07.696Z,28.16
2022-08-07T08:49:46.863Z,28.92
2022-08-07T08:52:36.179Z,27.39
2022-08-07T08:55:21.029Z,28.14
2022-08-07T08:58:13.063Z,26.37
2022-08-07T09:00:48.400Z,26.73
2022-08-07T09:03:47.419Z,26.14
2022-08-07T09:06:21.241Z,27.53
2022-08-07T09:08:58.033Z,28.31
2022-08-07T09:11:43.539Z,27.48
2022-08-07T09:14:29.704Z,27.94
2022-08-07T09:17:02.092Z,27.62
2022-08-07T09:19:52.922Z,27.93
2022-08-07T09:24:30.376Z,29.07
2022-08-07T09:25:41.303Z,29.21
2022-08-07T09:30:02.066Z,28.47
2022-08-07T09:31:09.396Z,28.72
2022-08-07T09:33:56.803Z,28.35
2022-08-07T09:36:35.388Z,30.04
2022-08-07T09:39:53.988Z,29.77
2022-08-07T09:42:07.720Z,29.69
2022-08-07T09:45:40.010Z,32.54
2022-08-07T09:47:58.263Z,30.50
2022-08-07T09:50:37.539Z,30.15
2022-08-07T09:53:12.586Z,30.56
2022-08-07T09:56:03.206Z,30.64
2022-08-07T09:58:52.374Z,30.77
2022-08-07T10:01:50.997Z,30.47
2022-08-07T10:04:33.343Z,31.19
2022-08-07T10:07:24.358Z,32.78
2022-08-07T10:10:06.996Z,32.48
2022-08-07T10:13:05.900Z,29.10
2022-08-07T10:15:51.348Z,30.56
2022-08-07T10:18:35.417Z,30.53
2022-08-07T10:21:50.524Z,31.03
2022-08-07T10:24:31.136Z,29.63
2022-08-07T10:27:11.415Z,31.01
2022-08-07T10:29:56.456Z,31.61
2022-08-07T10:32:52.773Z,32.55
2022-08-07T10:35:55.307Z,32.63
2022-08-07T10:38:46.392Z,31.41
2022-08-07T10:41:51.652Z,30.98
2022-08-07T10:44:28.499Z,31.50
2022-08-07T10:47:26.830Z,31.30
2022-08-07T10:50:15.146Z,31.37
2022-08-07T10:52:51.869Z,32.64
2022-08-07T10:55:36.805Z,31.68
2022-08-07T10:58:40.685Z,32.93
2022-08-07T11:01:23.705Z,34.27
2022-08-07T11:04:11.172Z,32.66
2022-08-07T11:06:56.518Z,34.57
2022-08-07T11:10:09.237Z,32.29
2022-08-07T11:12:31.655Z,31.28
2022-08-07T11:15:14.796Z,33.57
2022-08-07T11:17:50.501Z,34.22
2022-08-07T11:20:27.255Z,34.27
2022-08-07T11:23:01.376Z,34.73
2022-08-07T11:25:42.241Z,31.46
2022-08-07T11:28:16.727Z,33.79
2022-08-07T11:30:53.329Z,34.14
2022-08-07T11:33:48.684Z,34.72
2022-08-07T11:36:35.640Z,33.53
2022-08-07T11:39:10.668Z,33.80
2022-08-07T11:42:02.114Z,33.60
2022-08-07T11:44:39.454Z,32.72
2022-08-07T11:47:39.172Z,33.53
2022-08-07T11:50:32.604Z,32.29
2022-08-07T11:53:15.684Z,31.40
2022-08-07T11:56:26.884Z,31.58
2022-08-07T11:59:22.208Z,31.87
2022-08-07T12:02:04.099Z,31.81
2022-08-07T12:05:00.850Z,31.02
2022-08-07T12:07:38.759Z,31.80
2022-08-07T12:10:12.586Z,32.96
2022-08-07T12:12:44.807Z,34.01
2022-08-07T12:15:35.413Z,36.59
2022-08-07T12:18:11.433Z,38.09
2022-08-07T12:20:46.281Z,38.19
2022-08-07T12:24:06.000Z,36.52
2022-08-07T12:26:28.625Z,37.78
2022-08-07T12:29:05.096Z,40.48
2022-08-07T12:31:52.737Z,41.18
2022-08-07T12:34:27.880Z,40.06
2022-08-07T12:36:57.525Z,38.47
2022-08-07T12:39:43.933Z,36.30
2022-08-07T12:42:27.367Z,38.70
2022-08-07T12:44:57.717Z,39.22
2022-08-07T12:47:31.853Z,38.72
2022-08-07T12:50:39.261Z,39.96
2022-08-07T12:52:58.677Z,41.74
2022-08-07T12:55:40.801Z,41.00
2022-08-07T12:58:13.967Z,40.84
2022-08-07T13:01:05.638Z,37.26
2022-08-07T13:04:02.773Z,41.51
2022-08-07T13:08:11.613Z,40.02
2022-08-07T13:10:29.122Z,39.36
2022-08-07T13:13:48.734Z,41.70
2022-08-07T13:16:12.336Z,41.56
2022-08-07T13:18:49.339Z,42.19
2022-08-07T13:21:37.656Z,40.20
2022-08-07T13:24:13.447Z,41.17
2022-08-07T13:26:46.049Z,41.42
2022-08-07T13:29:18.131Z,40.31
2022-08-07T13:31:57.236Z,39.36
2022-08-07T13:34:37.744Z,37.10
2022-08-07T13:37:20.563Z,39.48
2022-08-07T13:40:35.413Z,36.96
2022-08-07T13:42:50.127Z,38.46
2022-08-07T13:46:06.802Z,38.47
2022-08-07T13:48:10.633Z,41.38
2022-08-07T13:51:00.480Z,38.30
2022-08-07T13:54:00.160Z,36.67
2022-08-07T13:56:36.293Z,39.04
2022-08-07T13:59:13.034Z,39.15
2022-08-07T14:01:51.600Z,40.86
2022-08-07T14:04:29.793Z,39.50
2022-08-07T14:07:09.740Z,40.43
2022-08-07T14:10:02.375Z,40.21
2022-08-07T14:12:41.389Z,41.69
2022-08-07T14:15:22.300Z,38.57
2022-08-07T14:18:24.041Z,39.14
2022-08-07T14:20:48.855Z,39.18
2022-08-07T14:23:59.431Z,38.18
2022-08-07T14:26:28.502Z,40.12
2022-08-07T14:29:02.929Z,39.36
2022-08-07T14:31:42.298Z,40.93
2022-08-07T14:34:19.934Z,41.98
2022-08-07T14:36:55.932Z,36.15
2022-08-07T14:42:20.482Z,34.19
2022-08-07T14:44:53.722Z,36.27
2022-08-07T14:47:23.210Z,37.95
2022-08-07T14:49:59.255Z,35.62
2022-08-07T14:55:17.681Z,34.99
2022-08-07T14:57:58.812Z,34.94
2022-08-07T15:00:31.046Z,33.43
2022-08-07T15:02:59.934Z,33.87
2022-08-07T15:05:30.624Z,32.67
2022-08-07T15:08:01.442Z,33.58
2022-08-07T15:10:30.463Z,33.94
2022-08-07T15:13:01.513Z,33.23
2022-08-07T15:15:38.514Z,33.97
2022-08-07T15:18:14.511Z,34.04
2022-08-07T15:21:44.312Z,32.56
2022-08-07T15:25:16.168Z,33.82
2022-08-07T15:26:49.027Z,35.10
2022-08-07T15:32:11.782Z,32.29
2022-08-07T15:34:50.681Z,31.77
2022-08-07T15:38:04.861Z,31.56
2022-08-07T15:43:53.823Z,32.23
2022-08-07T15:46:31.902Z,30.98
2022-08-07T15:54:34.282Z,32.97
2022-08-07T15:57:03.415Z,32.61
2022-08-07T15:59:39.919Z,32.87
2022-08-07T16:02:15.272Z,32.60
2022-08-07T16:04:44.187Z,32.31
2022-08-07T16:08:31.177Z,33.18
2022-08-07T16:10:14.294Z,33.68
2022-08-07T16:13:01.125Z,32.00
2022-08-07T16:15:55.344Z,31.67
2022-08-07T16:18:49.465Z,32.85
2022-08-07T16:22:01.156Z,32.82
2022-08-07T16:24:35.090Z,32.18
2022-08-07T16:27:18.039Z,31.61
2022-08-07T16:30:28.990Z,33.48
2022-08-07T16:33:00.206Z,33.09
2022-08-07T16:35:58.387Z,30.73
2022-08-07T16:39:00.466Z,31.57
2022-08-07T16:41:41.504Z,32.55
2022-08-07T16:44:46.367Z,33.37
2022-08-07T16:47:51.640Z,33.28
2022-08-07T16:50:38.878Z,34.17
2022-08-07T16:53:48.176Z,33.11
2022-08-07T16:56:21.579Z,34.69
2022-08-07T16:59:14.680Z,36.37
2022-08-07T17:01:53.848Z,37.75
2022-08-07T17:04:34.510Z,38.00
2022-08-07T17:07:10.713Z,38.20
2022-08-07T17:10:07.504Z,39.01
2022-08-07T17:12:46.401Z,37.22
2022-08-07T17:15:20.037Z,36.80
2022-08-07T17:18:00.022Z,37.49
2022-08-07T17:20:33.107Z,36.26
2022-08-07T17:23:08.630Z,36.54
2022-08-07T17:25:54.749Z,38.69
2022-08-07T17:28:31.329Z,40.00
2022-08-07T17:31:16.061Z,39.05
2022-08-07T17:34:15.355Z,39.36
2022-08-07T17:36:57.868Z,37.43
2022-08-07T17:39:53.005Z,37.77
2022-08-07T17:42:33.062Z,37.03
2022-08-07T17:45:05.936Z,36.74
2022-08-07T17:47:54.410Z,35.84
2022-08-07T17:50:30.825Z,36.81
2022-08-07T17:53:02.044Z,36.74
2022-08-07T17:55:54.905Z,36.21
2022-08-07T17:58:34.174Z,34.34
2022-08-07T18:01:21.187Z,34.15
2022-08-07T18:04:06.803Z,33.35
2022-08-07T18:06:43.114Z,32.90
2022-08-07T18:09:17.828Z,33.18
2022-08-07T18:12:19.618Z,32.22
2022-08-07T18:15:01.807Z,31.86
2022-08-07T18:18:45.242Z,31.80
2022-08-07T18:21:08.956Z,31.54
2022-08-07T18:23:43.400Z,31.08
2022-08-07T18:26:16.366Z,30.71
2022-08-07T18:29:00.362Z,30.45
2022-08-07T18:31:40.597Z,30.21
2022-08-07T18:34:39.210Z,30.51
2022-08-07T18:38:58.479Z,30.21
2022-08-07T18:40:42.517Z,29.90
2022-08-07T18:43:15.063Z,29.87
2022-08-07T18:46:24.702Z,30.09
2022-08-07T18:50:32.923Z,29.89
2022-08-07T18:52:33.895Z,29.99
2022-08-07T18:54:32.056Z,30.06
2022-08-07T18:57:31.016Z,29.90
2022-08-07T19:00:33.521Z,30.01
2022-08-07T19:03:00.692Z,29.27
2022-08-07T19:06:03.651Z,28.91
2022-08-07T19:08:26.966Z,28.57
2022-08-07T19:11:00.736Z,28.37
2022-08-07T19:13:38.527Z,28.58
2022-08-07T19:17:01.494Z,28.79
2022-08-07T19:19:14.744Z,29.15
2022-08-07T19:21:56.898Z,28.58
2022-08-07T19:24:43.576Z,28.63
2022-08-07T19:28:28.569Z,28.36
2022-08-07T19:31:05.189Z,28.72
2022-08-07T19:32:59.717Z,28.78
2022-08-07T19:35:33.537Z,28.71
2022-08-07T19:38:15.826Z,28.59
2022-08-07T19:40:50.270Z,28.38
2022-08-07T19:43:21.694Z,28.51
2022-08-07T19:46:15.760Z,28.02
2022-08-07T19:48:53.520Z,27.70
2022-08-07T19:51:50.450Z,27.81
2022-08-07T19:54:35.260Z,27.53
2022-08-07T19:58:02.615Z,27.92
2022-08-07T19:59:50.762Z,27.88
2022-08-07T20:02:28.758Z,27.73
2022-08-07T20:04:57.227Z,27.74
2022-08-07T20:07:47.201Z,27.85
2022-08-07T20:10:35.816Z,27.24
2022-08-07T20:13:15.738Z,27.46
2022-08-07T20:15:51.331Z,27.65
2022-08-07T20:18:32.958Z,27.68
2022-08-07T20:21:21.989Z,26.92
2022-08-07T20:23:54.928Z,26.59
2022-08-07T20:26:32.283Z,27.07
2022-08-07T20:29:10.710Z,27.20
2022-08-07T20:31:52.320Z,26.36
2022-08-07T20:34:48.852Z,26.48
2022-08-07T20:37:10.382Z,26.71
2022-08-07T20:40:02.487Z,26.42
2022-08-07T20:42:33.362Z,26.22
2022-08-07T20:45:02.078Z,26.62
2022-08-07T20:47:56.223Z,26.63
2022-08-07T20:50:24.380Z,25.99
2022-08-07T20:52:52.879Z,25.76
2022-08-07T20:55:23.600Z,25.53
2022-08-07T20:58:02.421Z,25.41
2022-08-07T21:00:42.608Z,25.30
2022-08-07T21:03:14.151Z,25.87
2022-08-07T21:05:54.542Z,26.44
2022-08-07T21:08:36.511Z,26.49
2022-08-07T21:11:16.977Z,26.37
2022-08-07T21:14:20.210Z,25.33
2022-08-07T21:16:46.773Z,24.88
2022-08-07T21:19:32.310Z,25.20
2022-08-07T21:22:19.154Z,25.92
2022-08-07T21:25:04.737Z,25.98
2022-08-07T21:27:55.696Z,25.74
2022-08-07T21:30:36.390Z,25.89
2022-08-07T21:33:13.716Z,25.71
2022-08-07T21:36:04.978Z,25.51
2022-08-07T21:38:46.127Z,24.88
2022-08-07T21:41:21.010Z,24.92
2022-08-07T21:43:57.093Z,24.86
2022-08-07T21:46:31.800Z,24.69
2022-08-07T21:49:15.088Z,24.78
2022-08-07T21:51:54.869Z,25.25
2022-08-07T21:54:29.436Z,25.41
2022-08-07T21:57:31.011Z,25.53
2022-08-07T22:00:08.726Z,25.71
2022-08-07T22:02:42.538Z,25.74
2022-08-07T22:05:22.057Z,24.61
2022-08-07T22:08:03.061Z,25.54
2022-08-07T22:10:35.590Z,25.21
2022-08-07T22:13:05.728Z,24.98
2022-08-07T22:16:42.549Z,25.19
2022-08-07T22:19:07.476Z,25.12
2022-08-07T22:22:05.198Z,24.95
2022-08-07T22:24:34.637Z,24.76
2022-08-07T22:27:10.240Z,24.69
2022-08-07T22:29:48.379Z,24.75
2022-08-07T22:32:21.979Z,24.73
2022-08-07T22:34:54.547Z,24.99
2022-08-07T22:38:02.879Z,25.25
2022-08-07T22:40:24.555Z,24.99
2022-08-07T22:42:59.225Z,24.68
2022-08-07T22:46:21.716Z,24.50
2022-08-07T22:48:55.398Z,24.55
2022-08-07T22:51:44.493Z,24.43
2022-08-07T22:54:37.513Z,24.54
2022-08-07T22:57:17.137Z,24.50
2022-08-07T22:59:50.991Z,24.38
2022-08-07T23:02:41.634Z,24.27
2022-08-07T23:06:09.462Z,24.31
2022-08-07T23:08:46.208Z,24.25
2022-08-07T23:11:41.133Z,24.74
2022-08-07T23:14:28.710Z,24.42
2022-08-07T23:17:37.187Z,24.37
2022-08-07T23:20:51.121Z,24.57
2022-08-07T23:24:05.291Z,24.66
2022-08-07T23:26:26.216Z,24.02
2022-08-07T23:29:43.151Z,24.11
2022-08-07T23:34:22.385Z,23.90
2022-08-07T23:35:16.719Z,24.07
2022-08-07T23:38:19.358Z,24.07
2022-08-07T23:41:33.381Z,23.82
2022-08-07T23:44:16.483Z,23.55
2022-08-07T23:46:58.584Z,23.79
2022-08-07T23:49:53.590Z,23.66
2022-08-07T23:53:05.949Z,23.77
2022-08-07T23:55:52.962Z,23.54
2022-08-07T23:58:18.701Z,23.67
